Time;durP1;ratioP1;P1;durP2;ratioP2;P2;SDS_P1;SDS_P2;PMS_P1;PMS_P2;Temp;Humidity;BMP_temperature;BMP_pressure;BME280_temperature;BME280_humidity;BME280_pressure;Samples;Min_cycle;Max_cycle;Signal;HPM_P1;HPM_P2
2024/03/14 00:00:18;;;;;;;1.65;1.20;;;;;;;11.36;64.63;99905.00;10431352;28;20155;-62
2024/03/14 00:05:20;;;;;;;3.97;1.55;;;;;;;11.28;64.50;99906.31;10462343;28;20055;-62
2024/03/14 00:10:24;;;;;;;2.47;1.40;;;;;;;11.28;64.55;99914.16;10439235;28;20531;-62
2024/03/14 00:15:27;;;;;;;3.13;1.95;;;;;;;11.29;64.66;99922.84;10438704;28;20083;-63
2024/03/14 00:20:29;;;;;;;1.58;1.30;;;;;;;11.20;64.79;99921.66;10438630;28;20076;-62
2024/03/14 00:25:31;;;;;;;4.13;1.50;;;;;;;11.16;64.62;99924.53;10437248;28;20523;-62
2024/03/14 00:30:36;;;;;;;2.33;1.20;;;;;;;11.14;64.95;99916.78;10438053;28;20405;-62
2024/03/14 00:35:39;;;;;;;3.47;1.50;;;;;;;11.08;64.92;99909.31;10436504;28;20971;-63
2024/03/14 00:40:41;;;;;;;4.93;2.38;;;;;;;11.05;65.02;99916.53;10431354;28;20068;-62
2024/03/14 00:45:43;;;;;;;2.35;1.50;;;;;;;11.02;65.08;99922.75;10469620;28;20056;-62
2024/03/14 00:50:46;;;;;;;3.70;1.60;;;;;;;11.06;65.04;99913.81;10437820;28;20047;-62
2024/03/14 00:55:49;;;;;;;2.80;1.52;;;;;;;11.10;64.82;99912.69;10436492;28;20048;-62
2024/03/14 01:00:51;;;;;;;3.33;1.70;;;;;;;11.09;64.84;99908.38;10436175;28;20048;-62
2024/03/14 01:05:53;;;;;;;5.50;1.80;;;;;;;11.12;64.79;99902.13;10434779;28;20056;-62
2024/03/14 01:10:55;;;;;;;2.80;1.40;;;;;;;11.03;65.02;99906.09;10435640;28;20084;-62
2024/03/14 01:15:57;;;;;;;3.17;1.40;;;;;;;11.06;64.94;99908.59;10435664;28;20409;-62
2024/03/14 01:21:00;;;;;;;3.03;1.80;;;;;;;10.93;65.23;99899.75;10434077;28;20045;-62
2024/03/14 01:26:03;;;;;;;3.10;1.63;;;;;;;10.88;65.13;99894.00;10435807;28;20135;-62
2024/03/14 01:31:05;;;;;;;3.63;1.90;;;;;;;10.83;65.03;99879.47;10434005;28;20156;-62
2024/03/14 01:36:08;;;;;;;2.92;1.60;;;;;;;10.80;64.88;99880.53;10434993;28;20140;-62
2024/03/14 01:41:21;;;;;;;5.28;1.70;;;;;;;10.75;64.93;99874.72;10433450;28;20397;-62
2024/03/14 01:46:28;;;;;;;5.65;1.42;;;;;;;10.74;64.72;99870.44;10433110;28;20126;-62
2024/03/14 01:51:30;;;;;;;2.35;1.45;;;;;;;10.67;64.72;99861.28;10434205;28;20045;-62
2024/03/14 01:56:32;;;;;;;3.50;1.75;;;;;;;10.52;65.08;99849.97;10431199;28;20055;-62
2024/03/14 02:01:34;;;;;;;2.80;1.50;;;;;;;10.52;64.99;99853.53;10433385;28;20056;-62
2024/03/14 02:06:45;;;;;;;4.25;1.48;;;;;;;10.39;65.13;99850.81;10448815;28;20640;-62
2024/03/14 02:11:49;;;;;;;3.60;1.70;;;;;;;10.34;65.39;99842.41;10432351;28;20154;-62
2024/03/14 02:16:51;;;;;;;3.05;1.60;;;;;;;10.38;65.24;99841.28;10434201;28;20049;-64
2024/03/14 02:22:00;;;;;;;1.95;1.30;;;;;;;10.34;65.26;99845.00;10431545;28;20128;-62
2024/03/14 02:27:06;;;;;;;4.40;1.40;;;;;;;10.31;65.25;99853.06;10432292;28;20048;-63
2024/03/14 02:32:11;;;;;;;4.13;1.92;;;;;;;10.28;65.30;99845.38;10431736;28;20099;-62
2024/03/14 02:37:13;;;;;;;6.82;2.30;;;;;;;10.27;65.26;99856.78;10414870;28;20056;-62
2024/03/14 02:42:15;;;;;;;4.82;1.50;;;;;;;10.26;65.03;99858.56;10432920;28;20060;-62
2024/03/14 02:47:17;;;;;;;2.88;1.55;;;;;;;10.08;65.48;99864.88;10431518;28;20135;-62
2024/03/14 02:52:20;;;;;;;3.17;1.90;;;;;;;10.02;65.76;99853.94;10431953;28;20041;-62
2024/03/14 02:57:22;;;;;;;4.28;2.22;;;;;;;10.02;65.70;99844.31;10431505;28;20228;-62
2024/03/14 03:02:25;;;;;;;4.32;2.15;;;;;;;10.05;65.64;99845.94;10431172;28;20484;-62
2024/03/14 03:07:30;;;;;;;4.75;1.60;;;;;;;10.00;65.51;99858.41;10431447;28;20076;-63
2024/03/14 03:12:39;;;;;;;3.33;1.75;;;;;;;10.00;65.59;99850.56;10429881;28;20592;-63
2024/03/14 03:17:42;;;;;;;3.47;1.80;;;;;;;10.16;65.36;99852.19;10431107;28;20041;-62
2024/03/14 03:23:06;;;;;;;3.80;1.80;;;;;;;10.32;65.39;99845.13;10432254;28;20055;-62
2024/03/14 03:28:13;;;;;;;2.90;1.63;;;;;;;10.37;65.13;99840.47;10432323;28;20068;-62
2024/03/14 03:33:20;;;;;;;3.00;1.63;;;;;;;10.41;64.99;99847.19;10430679;28;20130;-63
2024/03/14 03:38:22;;;;;;;6.43;2.35;;;;;;;10.28;65.28;99837.53;10431367;28;20451;-62
2024/03/14 03:43:26;;;;;;;7.03;1.90;;;;;;;10.26;65.35;99831.56;10439293;28;20053;-62
2024/03/14 03:48:28;;;;;;;4.85;2.00;;;;;;;10.21;65.29;99828.41;10440398;28;20296;-62
2024/03/14 03:53:32;;;;;;;2.58;1.50;;;;;;;10.19;65.31;99819.81;10440027;28;20099;-62
2024/03/14 03:58:34;;;;;;;4.93;1.63;;;;;;;10.08;65.50;99824.81;10439485;28;20524;-62
2024/03/14 04:03:40;;;;;;;4.32;1.70;;;;;;;9.94;65.55;99815.19;10438048;28;20404;-63
2024/03/14 04:08:45;;;;;;;4.18;1.58;;;;;;;9.86;65.54;99816.56;10439522;28;20065;-63
2024/03/14 04:13:48;;;;;;;5.53;1.80;;;;;;;9.77;65.54;99815.34;10398263;28;20253;-62
2024/03/14 04:18:50;;;;;;;3.05;1.80;;;;;;;9.69;65.63;99819.34;10413535;28;20096;-63
2024/03/14 04:23:52;;;;;;;4.78;1.30;;;;;;;9.51;65.78;99821.19;10394688;28;20782;-62
2024/03/14 04:28:54;;;;;;;3.55;1.90;;;;;;;9.38;65.91;99822.84;10395907;28;20049;-63
2024/03/14 04:33:58;;;;;;;3.13;1.65;;;;;;;9.24;66.14;99822.78;10379514;28;20057;-62
2024/03/14 04:39:00;;;;;;;4.40;1.88;;;;;;;9.13;66.41;99830.34;10396072;28;20464;-63
2024/03/14 04:44:05;;;;;;;4.00;1.83;;;;;;;9.10;66.42;99823.50;10397059;28;20041;-62
2024/03/14 04:49:12;;;;;;;4.75;2.13;;;;;;;9.08;66.61;99816.69;10396763;28;20055;-62
2024/03/14 04:54:14;;;;;;;4.78;1.83;;;;;;;9.05;66.26;99819.50;10394301;28;20126;-61
2024/03/14 04:59:16;;;;;;;4.80;1.80;;;;;;;8.94;66.66;99825.28;10396316;28;20463;-61
2024/03/14 05:04:18;;;;;;;6.20;1.60;;;;;;;8.95;66.81;99820.91;10394152;28;20492;-61
2024/03/14 05:09:22;;;;;;;3.25;1.60;;;;;;;8.98;66.81;99812.91;10400359;28;20056;-62
2024/03/14 05:14:24;;;;;;;5.43;1.55;;;;;;;8.96;66.58;99820.81;10436061;28;20048;-61
2024/03/14 05:19:26;;;;;;;4.28;2.03;;;;;;;8.92;66.50;99821.91;10468976;28;20719;-62
2024/03/14 05:24:30;;;;;;;2.38;1.55;;;;;;;8.89;66.30;99811.66;10436049;28;20067;-61
2024/03/14 05:29:32;;;;;;;5.38;1.50;;;;;;;8.87;66.28;99816.13;10435749;28;20045;-61
2024/03/14 05:34:34;;;;;;;2.88;1.45;;;;;;;8.80;66.22;99814.75;10436092;28;20249;-62
2024/03/14 05:39:37;;;;;;;2.67;1.40;;;;;;;8.87;66.42;99805.69;10435121;28;20231;-61
2024/03/14 05:44:42;;;;;;;3.53;1.80;;;;;;;8.79;66.11;99811.31;10435641;28;20044;-61
2024/03/14 05:49:44;;;;;;;3.35;1.52;;;;;;;8.70;66.19;99810.97;10435069;28;20566;-62
2024/03/14 05:54:46;;;;;;;4.75;1.88;;;;;;;8.53;66.21;99813.63;10436138;28;20517;-62
2024/03/14 05:59:51;;;;;;;5.85;1.90;;;;;;;8.57;66.37;99810.78;10412226;28;20098;-61
2024/03/14 06:04:53;;;;;;;5.65;3.15;;;;;;;8.68;66.16;99811.06;10430803;28;20052;-62
2024/03/14 06:09:56;;;;;;;22.40;2.63;;;;;;;8.69;65.81;99811.88;10429609;28;20449;-61
2024/03/14 06:14:58;;;;;;;59.88;2.75;;;;;;;8.63;65.84;99814.81;10431680;28;20414;-61
2024/03/14 06:20:00;;;;;;;2.25;1.40;;;;;;;8.66;66.08;99814.66;10429189;28;20064;-62
2024/03/14 06:25:04;;;;;;;3.88;1.33;;;;;;;8.83;65.72;99812.00;10430888;28;20084;-62
2024/03/14 06:30:09;;;;;;;41.10;2.42;;;;;;;8.92;65.59;99821.91;10428027;28;20396;-61
2024/03/14 06:35:16;;;;;;;2.58;1.50;;;;;;;9.03;65.27;99813.50;10430092;28;20037;-63
2024/03/14 06:40:22;;;;;;;1.73;1.02;;;;;;;9.11;65.03;99820.00;10428807;28;20041;-62
2024/03/14 06:45:24;;;;;;;2.58;1.48;;;;;;;9.14;64.99;99817.19;10462550;28;20485;-62
2024/03/14 06:50:26;;;;;;;82.47;3.90;;;;;;;9.17;65.08;99819.66;10427865;28;20045;-62
2024/03/14 06:55:30;;;;;;;3.35;1.70;;;;;;;9.20;64.99;99822.06;10429473;28;20090;-62
2024/03/14 07:00:32;;;;;;;4.90;2.30;;;;;;;9.33;64.53;99812.66;10428113;28;20202;-62
2024/03/14 07:05:36;;;;;;;3.35;1.95;;;;;;;9.48;64.52;99813.56;10429625;28;20072;-62
2024/03/14 07:10:41;;;;;;;8.77;2.42;;;;;;;9.72;64.31;99819.16;10427979;28;21254;-62
2024/03/14 07:15:43;;;;;;;3.83;2.20;;;;;;;9.91;64.07;99814.56;10460243;28;20138;-62
2024/03/14 07:20:45;;;;;;;4.95;2.58;;;;;;;10.09;63.87;99814.31;10460508;28;20076;-62
2024/03/14 07:25:49;;;;;;;4.63;3.08;;;;;;;10.32;63.28;99815.50;10427892;28;20126;-62
2024/03/14 07:30:51;;;;;;;2.22;1.48;;;;;;;10.25;63.29;99809.00;10427256;28;20052;-62
2024/03/14 07:35:54;;;;;;;2.75;1.52;;;;;;;10.20;63.43;99811.03;10428477;28;20063;-62
2024/03/14 07:40:57;;;;;;;3.35;1.90;;;;;;;10.18;63.62;99818.13;10426097;28;20103;-63
2024/03/14 07:46:02;;;;;;;3.10;1.77;;;;;;;10.52;63.28;99816.94;10428026;28;20048;-62
2024/03/14 07:51:07;;;;;;;3.90;1.80;;;;;;;10.86;62.71;99817.38;10425340;28;20048;-62
2024/03/14 07:56:12;;;;;;;5.55;2.97;;;;;;;11.45;62.30;99823.22;10427149;28;20052;-63
2024/03/14 08:01:18;;;;;;;5.63;2.25;;;;;;;11.10;62.11;99826.31;10424121;28;20128;-62
2024/03/14 08:06:21;;;;;;;7.63;2.47;;;;;;;11.17;62.56;99826.78;10427189;28;20045;-63
2024/03/14 08:11:25;;;;;;;4.65;2.78;;;;;;;11.40;62.29;99828.75;10408427;28;20239;-62
2024/03/14 08:16:27;;;;;;;6.07;2.95;;;;;;;11.51;61.90;99826.28;10427743;28;20952;-63
2024/03/14 08:21:30;;;;;;;5.90;3.05;;;;;;;11.60;61.78;99830.09;10426455;28;20060;-63
2024/03/14 08:26:33;;;;;;;6.40;3.35;;;;;;;11.65;61.80;99828.84;10428228;28;20033;-63
2024/03/14 08:31:36;;;;;;;5.78;2.47;;;;;;;12.04;61.14;99817.47;10433588;28;20080;-63
2024/03/14 08:36:41;;;;;;;4.07;2.45;;;;;;;12.29;60.99;99816.69;10434864;28;20056;-61
2024/03/14 08:41:44;;;;;;;5.18;2.83;;;;;;;12.50;60.55;99816.03;10416133;28;20134;-64
2024/03/14 08:46:46;;;;;;;4.07;2.50;;;;;;;12.76;60.18;99815.03;10466432;28;20091;-62
2024/03/14 08:51:51;;;;;;;4.90;2.30;;;;;;;13.01;60.06;99815.94;10432635;28;20029;-61
2024/03/14 08:56:53;;;;;;;4.82;2.50;;;;;;;13.11;59.37;99809.91;10431717;28;20045;-61
2024/03/14 09:01:56;;;;;;;4.85;2.63;;;;;;;13.11;58.99;99815.16;10432720;28;20148;-61
2024/03/14 09:06:58;;;;;;;4.90;2.60;;;;;;;13.30;59.25;99807.66;10430972;28;20095;-62
2024/03/14 09:12:24;;;;;;;3.78;1.80;;;;;;;13.47;58.56;99806.44;10432671;28;20060;-57
2024/03/14 09:17:26;;;;;;;3.85;2.15;;;;;;;13.83;58.30;99802.88;10431848;28;20048;-58
2024/03/14 09:22:28;;;;;;;3.95;1.90;;;;;;;13.98;57.87;99802.56;10431056;28;20049;-58
2024/03/14 09:27:32;;;;;;;8.30;2.38;;;;;;;14.04;57.79;99796.00;10431133;28;20162;-59
2024/03/14 09:32:35;;;;;;;4.13;1.73;;;;;;;14.42;57.07;99801.78;10432150;28;20060;-59
2024/03/14 09:37:38;;;;;;;3.35;2.05;;;;;;;14.55;56.36;99792.03;10431545;28;20052;-59
2024/03/14 09:42:47;;;;;;;3.08;1.55;;;;;;;14.63;55.93;99794.88;10428321;28;20052;-56
2024/03/14 09:47:50;;;;;;;4.97;2.30;;;;;;;14.62;55.98;99797.63;10427668;28;20048;-58
2024/03/14 09:52:54;;;;;;;4.53;1.90;;;;;;;14.76;55.49;99789.50;10425554;28;20055;-58
2024/03/14 09:58:01;;;;;;;7.85;2.25;;;;;;;14.35;55.71;99793.50;10429034;28;20049;-59
2024/03/14 10:03:07;;;;;;;4.72;2.00;;;;;;;14.40;55.90;99787.91;10427896;28;20134;-58
2024/03/14 10:08:11;;;;;;;4.30;2.45;;;;;;;14.84;55.91;99773.94;10429709;28;20053;-58
2024/03/14 10:13:26;;;;;;;7.82;2.20;;;;;;;15.29;53.80;99765.78;10428805;28;20060;-58
2024/03/14 10:18:29;;;;;;;4.85;2.20;;;;;;;15.79;54.18;99760.78;10429206;28;20859;-58
2024/03/14 10:23:32;;;;;;;5.82;2.17;;;;;;;15.72;53.82;99762.25;10428407;28;20123;-58
2024/03/14 10:28:34;;;;;;;6.97;2.17;;;;;;;15.90;52.86;99758.91;10429577;28;20049;-58
2024/03/14 10:33:37;;;;;;;4.40;2.28;;;;;;;15.91;52.65;99742.13;10413730;28;20049;-59
2024/03/14 10:38:43;;;;;;;4.80;1.92;;;;;;;16.31;52.26;99738.72;10422940;28;20049;-58
2024/03/14 10:43:56;;;;;;;3.70;1.75;;;;;;;16.62;50.30;99735.97;10428484;28;20527;-58
2024/03/14 10:49:01;;;;;;;4.75;1.92;;;;;;;16.91;51.14;99731.59;10427211;28;20045;-58
2024/03/14 10:54:08;;;;;;;4.00;1.98;;;;;;;17.28;50.03;99731.72;10427490;28;20052;-58
2024/03/14 10:59:12;;;;;;;5.30;2.03;;;;;;;17.19;48.92;99724.66;10425537;28;20048;-58
2024/03/14 11:04:14;;;;;;;4.25;2.13;;;;;;;17.45;49.22;99720.50;10428225;28;20049;-59
2024/03/14 11:09:24;;;;;;;4.05;2.13;;;;;;;17.43;47.01;99711.03;10424497;28;20052;-58
2024/03/14 11:14:36;;;;;;;6.15;1.92;;;;;;;17.56;46.99;99693.94;10417660;28;20555;-59
2024/03/14 11:19:43;;;;;;;3.95;1.80;;;;;;;17.37;47.86;99706.31;10406607;28;20047;-59
2024/03/14 11:24:48;;;;;;;5.50;1.75;;;;;;;16.97;48.17;99688.78;10424711;28;20041;-59
2024/03/14 11:29:52;;;;;;;2.90;1.42;;;;;;;17.18;48.12;99683.31;10423517;28;20049;-58
2024/03/14 11:34:58;;;;;;;3.08;1.63;;;;;;;17.18;47.57;99682.53;10423811;28;20520;-58
2024/03/14 11:40:14;;;;;;;2.65;1.58;;;;;;;17.22;47.29;99675.97;10416025;28;20831;-58
2024/03/14 11:45:16;;;;;;;4.10;1.60;;;;;;;17.47;47.68;99670.97;10423800;28;20036;-58
2024/03/14 11:50:22;;;;;;;2.22;1.40;;;;;;;17.82;46.99;99660.59;10414142;28;20048;-58
2024/03/14 11:55:29;;;;;;;2.17;1.33;;;;;;;17.65;46.94;99657.84;10410261;28;20048;-58
2024/03/14 12:00:32;;;;;;;2.50;1.58;;;;;;;17.42;47.51;99651.22;10426152;28;20508;-58
2024/03/14 12:05:38;;;;;;;2.47;1.25;;;;;;;17.46;47.27;99644.69;10432872;28;20041;-59
2024/03/14 12:10:40;;;;;;;3.22;1.52;;;;;;;17.36;47.69;99634.13;10433788;28;20057;-59
2024/03/14 12:15:43;;;;;;;2.03;1.27;;;;;;;17.66;47.46;99627.78;10435219;28;20057;-58
2024/03/14 12:20:48;;;;;;;1.70;1.20;;;;;;;17.95;45.95;99619.75;10433150;28;20103;-58
2024/03/14 12:25:51;;;;;;;2.55;1.20;;;;;;;18.19;46.20;99626.22;10434803;28;20065;-58
2024/03/14 12:31:00;;;;;;;1.20;1.10;;;;;;;18.08;46.36;99628.16;10433287;28;20037;-58
2024/03/14 12:36:06;;;;;;;2.53;1.00;;;;;;;18.07;46.00;99613.28;10433551;28;20138;-58
2024/03/14 12:41:11;;;;;;;1.38;1.23;;;;;;;18.21;45.67;99610.19;10432653;28;20146;-58
2024/03/14 12:46:15;;;;;;;3.92;1.00;;;;;;;18.39;45.62;99613.69;10425605;28;20533;-58
2024/03/14 12:51:23;;;;;;;1.08;1.00;;;;;;;18.41;44.71;99601.97;10424679;28;21118;-58
2024/03/14 12:56:28;;;;;;;2.60;1.00;;;;;;;18.63;43.83;99600.69;10422705;28;20048;-58
2024/03/14 13:01:33;;;;;;;1.98;0.90;;;;;;;18.51;44.81;99589.50;10417551;28;20076;-58
2024/03/14 13:06:38;;;;;;;1.15;1.00;;;;;;;18.47;44.53;99584.66;10440466;28;20049;-58
2024/03/14 13:12:22;;;;;;;2.45;1.10;;;;;;;18.22;42.70;99572.16;10420877;28;20186;-58
2024/03/14 13:17:24;;;;;;;1.83;1.10;;;;;;;17.68;46.29;99570.28;10420703;28;20048;-58
2024/03/14 13:22:28;;;;;;;1.90;1.10;;;;;;;17.79;45.65;99564.81;10423851;28;20401;-58
2024/03/14 13:27:30;;;;;;;2.90;1.10;;;;;;;17.96;45.09;99553.44;10461367;28;20073;-58
2024/03/14 13:32:37;;;;;;;1.52;1.10;;;;;;;18.06;45.27;99553.38;10430921;28;20041;-58
2024/03/14 13:37:42;;;;;;;0.88;0.88;;;;;;;17.70;45.61;99541.88;10430393;28;20210;-58
2024/03/14 13:42:44;;;;;;;1.15;1.05;;;;;;;17.82;44.91;99541.56;10428968;28;20124;-57
2024/03/14 13:47:46;;;;;;;1.90;1.10;;;;;;;18.34;43.89;99549.78;10430467;28;20136;-58
2024/03/14 13:52:48;;;;;;;1.95;1.10;;;;;;;18.46;43.41;99535.34;10413726;28;20041;-57
2024/03/14 13:57:52;;;;;;;2.13;0.90;;;;;;;18.39;43.72;99529.81;10431660;28;20230;-57
2024/03/14 14:02:56;;;;;;;2.20;1.05;;;;;;;18.40;43.82;99528.00;10431797;28;20041;-58
2024/03/14 14:08:00;;;;;;;1.40;1.00;;;;;;;18.69;43.52;99501.28;10429681;28;20064;-58
2024/03/14 14:13:06;;;;;;;1.35;1.00;;;;;;;18.60;42.04;99493.25;10415812;28;20057;-58
2024/03/14 14:18:11;;;;;;;2.47;1.02;;;;;;;18.70;43.21;99487.88;10434508;28;20084;-58
2024/03/14 14:23:15;;;;;;;1.60;1.00;;;;;;;18.56;43.73;99475.97;10429784;28;20052;-58
2024/03/14 14:28:19;;;;;;;1.85;1.10;;;;;;;18.62;43.98;99472.75;10431435;28;20052;-58
2024/03/14 14:33:22;;;;;;;1.75;1.10;;;;;;;18.54;44.34;99458.59;10465725;28;20044;-57
2024/03/14 14:38:27;;;;;;;2.78;1.65;;;;;;;18.38;44.75;99446.03;10433017;28;20053;-58
2024/03/14 14:43:29;;;;;;;2.22;1.20;;;;;;;18.27;44.82;99432.22;10433769;28;20922;-57
2024/03/14 14:48:31;;;;;;;1.58;1.00;;;;;;;18.14;45.47;99424.63;10433970;28;20136;-58
2024/03/14 14:53:34;;;;;;;5.57;1.50;;;;;;;18.16;45.82;99416.53;10433907;28;20056;-58
2024/03/14 14:58:36;;;;;;;1.63;1.00;;;;;;;18.19;45.61;99416.25;10432693;28;20098;-57
2024/03/14 15:03:38;;;;;;;2.83;1.00;;;;;;;18.24;45.61;99417.47;10432533;28;21032;-57
2024/03/14 15:08:44;;;;;;;1.15;0.80;;;;;;;18.52;44.23;99416.38;10432313;28;20056;-58
2024/03/14 15:13:48;;;;;;;0.88;0.77;;;;;;;18.34;43.76;99410.28;10430082;28;20041;-57
2024/03/14 15:18:50;;;;;;;3.38;1.10;;;;;;;18.36;43.14;99396.91;10431882;28;20052;-58
2024/03/14 15:23:53;;;;;;;1.27;0.82;;;;;;;18.49;43.15;99402.59;10432182;28;20036;-56
2024/03/14 15:28:56;;;;;;;1.52;0.63;;;;;;;18.51;42.99;99400.63;10431444;28;21007;-57
2024/03/14 15:33:58;;;;;;;0.77;0.70;;;;;;;18.45;42.77;99398.59;10429526;28;20041;-57
2024/03/14 15:39:00;;;;;;;3.15;1.20;;;;;;;18.43;42.51;99390.84;10438423;28;20061;-57
2024/03/14 15:44:05;;;;;;;1.25;0.77;;;;;;;18.43;43.02;99397.94;10439131;28;20037;-57
2024/03/14 15:49:07;;;;;;;3.63;1.30;;;;;;;18.30;42.80;99387.75;10440857;28;20052;-58
2024/03/14 15:54:10;;;;;;;1.55;0.85;;;;;;;17.97;42.94;99380.50;10439825;28;20051;-57
2024/03/14 15:59:17;;;;;;;1.60;0.88;;;;;;;17.74;43.11;99388.03;10439012;28;20037;-57
2024/03/14 16:04:19;;;;;;;2.35;1.00;;;;;;;17.50;43.91;99385.16;10439893;28;20493;-58
2024/03/14 16:09:21;;;;;;;1.65;1.10;;;;;;;17.23;44.56;99385.13;10438554;28;20073;-58
2024/03/14 16:14:23;;;;;;;2.30;1.10;;;;;;;16.90;45.91;99385.66;10437400;28;20057;-58
2024/03/14 16:19:26;;;;;;;1.63;1.05;;;;;;;16.53;46.88;99379.56;10438764;28;20519;-58
2024/03/14 16:24:28;;;;;;;3.55;1.77;;;;;;;16.26;47.52;99376.78;10436723;28;20147;-57
2024/03/14 16:29:30;;;;;;;2.67;1.35;;;;;;;16.01;48.36;99381.66;10436949;28;20049;-58
2024/03/14 16:34:32;;;;;;;3.50;1.33;;;;;;;15.88;48.91;99381.09;10433671;28;20053;-57
2024/03/14 16:39:35;;;;;;;2.92;1.73;;;;;;;15.70;49.50;99374.84;10434101;28;20787;-58
2024/03/14 16:44:40;;;;;;;4.40;2.28;;;;;;;15.58;49.55;99380.34;10436285;28;20065;-58
2024/03/14 16:49:44;;;;;;;3.08;1.60;;;;;;;15.47;50.08;99380.47;10433941;28;20037;-58
2024/03/14 16:54:46;;;;;;;3.72;1.50;;;;;;;15.31;50.54;99378.31;10434309;28;20041;-57
2024/03/14 16:59:49;;;;;;;3.58;1.77;;;;;;;15.28;50.84;99390.00;10434465;28;20041;-59
2024/03/14 17:04:52;;;;;;;3.38;1.95;;;;;;;15.18;50.89;99397.03;10432069;28;20964;-58
2024/03/14 17:09:54;;;;;;;3.63;1.77;;;;;;;15.05;51.53;99390.31;10429495;28;20083;-58
2024/03/14 17:14:56;;;;;;;2.72;1.98;;;;;;;14.94;51.99;99403.59;10431253;28;20072;-58
2024/03/14 17:20:02;;;;;;;4.38;2.40;;;;;;;14.78;52.29;99405.88;10429916;28;20052;-57
2024/03/14 17:25:04;;;;;;;8.23;2.78;;;;;;;14.53;52.71;99405.28;10431772;28;20095;-57
2024/03/14 17:30:07;;;;;;;4.45;2.83;;;;;;;14.39;53.39;99416.09;10428286;28;20558;-57
2024/03/14 17:35:11;;;;;;;4.63;3.05;;;;;;;14.20;53.85;99413.34;10445213;28;20049;-57
2024/03/14 17:40:18;;;;;;;8.13;3.47;;;;;;;14.07;53.80;99407.41;10428238;28;20163;-57
2024/03/14 17:45:23;;;;;;;5.22;3.35;;;;;;;13.97;54.37;99410.91;10433794;28;20488;-58
2024/03/14 17:50:31;;;;;;;5.82;3.28;;;;;;;13.85;54.73;99418.03;10431726;28;20055;-58
2024/03/14 17:55:36;;;;;;;5.78;3.33;;;;;;;13.70;54.97;99422.72;10431981;28;20493;-57
2024/03/14 18:00:39;;;;;;;5.05;3.38;;;;;;;13.53;55.39;99428.50;10432548;28;21035;-58
2024/03/14 18:05:42;;;;;;;5.70;3.67;;;;;;;13.48;55.46;99421.94;10432666;28;20045;-57
2024/03/14 18:10:49;;;;;;;7.22;3.80;;;;;;;13.34;55.91;99422.16;10412625;28;20134;-57
2024/03/14 18:15:52;;;;;;;5.63;3.35;;;;;;;13.26;56.21;99421.94;10430364;28;20404;-61
2024/03/14 18:20:55;;;;;;;6.45;4.00;;;;;;;13.22;56.31;99423.97;10433393;28;20398;-62
2024/03/14 18:25:57;;;;;;;5.45;3.72;;;;;;;13.12;56.54;99419.56;10427697;28;20041;-61
2024/03/14 18:31:00;;;;;;;6.60;3.80;;;;;;;12.98;56.71;99434.56;10432159;28;20076;-62
2024/03/14 18:36:03;;;;;;;6.88;3.97;;;;;;;12.81;57.07;99431.59;10414509;28;20132;-61
2024/03/14 18:41:05;;;;;;;6.28;4.00;;;;;;;12.67;57.31;99429.19;10433476;28;20102;-61
2024/03/14 18:46:11;;;;;;;7.18;4.10;;;;;;;12.70;57.95;99429.78;10426874;28;20083;-60
2024/03/14 18:51:15;;;;;;;5.88;3.83;;;;;;;12.69;57.80;99424.66;10429934;28;20125;-61
2024/03/14 18:56:17;;;;;;;7.30;4.07;;;;;;;12.61;57.87;99427.88;10432408;28;20254;-61
2024/03/14 19:01:19;;;;;;;6.32;4.18;;;;;;;12.57;58.10;99431.69;10429104;28;20147;-61
2024/03/14 19:06:21;;;;;;;6.55;4.13;;;;;;;12.53;58.26;99425.00;10427119;28;20072;-61
2024/03/14 19:11:26;;;;;;;7.28;4.30;;;;;;;12.47;58.65;99422.00;10429534;28;20421;-61
2024/03/14 19:16:28;;;;;;;7.00;4.07;;;;;;;12.44;58.59;99417.81;10429785;28;20069;-61
2024/03/14 19:21:30;;;;;;;7.50;4.15;;;;;;;12.39;58.80;99425.19;10430548;28;20085;-60
2024/03/14 19:26:33;;;;;;;11.20;4.60;;;;;;;12.31;59.04;99429.34;10431057;28;20575;-62
2024/03/14 19:31:35;;;;;;;9.98;5.55;;;;;;;12.24;59.35;99431.53;10431152;28;20590;-61
2024/03/14 19:36:41;;;;;;;10.85;5.35;;;;;;;12.24;59.41;99428.91;10431790;28;20075;-62
2024/03/14 19:41:44;;;;;;;8.70;4.85;;;;;;;12.19;59.67;99420.56;10431853;28;20060;-61
2024/03/14 19:46:50;;;;;;;9.25;4.60;;;;;;;12.14;59.77;99418.28;10431330;28;20102;-61
2024/03/14 19:51:56;;;;;;;6.03;3.90;;;;;;;12.13;59.96;99415.75;10432555;28;20056;-61
2024/03/14 19:56:58;;;;;;;10.95;4.78;;;;;;;12.04;60.09;99413.84;10425907;28;20049;-61
2024/03/14 20:02:00;;;;;;;7.45;4.28;;;;;;;11.99;59.99;99411.53;10424743;28;20408;-61
2024/03/14 20:07:03;;;;;;;6.30;3.72;;;;;;;11.88;60.28;99414.13;10427896;28;20136;-61
2024/03/14 20:12:06;;;;;;;8.77;3.60;;;;;;;11.82;60.28;99408.50;10417951;28;20049;-61
2024/03/14 20:17:10;;;;;;;6.38;3.88;;;;;;;11.69;60.41;99411.16;10418898;28;20041;-61
2024/03/14 20:22:18;;;;;;;6.80;4.50;;;;;;;11.64;60.53;99412.47;10425433;28;20571;-61
2024/03/14 20:27:20;;;;;;;7.85;4.22;;;;;;;11.58;60.80;99408.47;10462991;28;20041;-61
2024/03/14 20:32:22;;;;;;;5.20;3.15;;;;;;;11.52;60.89;99402.88;10431522;28;20094;-61
2024/03/14 20:37:24;;;;;;;9.95;4.63;;;;;;;11.45;60.93;99404.25;10427987;28;20483;-61
2024/03/14 20:42:34;;;;;;;6.57;3.97;;;;;;;11.38;61.02;99403.84;10429103;28;20071;-61
2024/03/14 20:47:37;;;;;;;7.18;4.50;;;;;;;11.17;61.31;99397.53;10433230;28;20072;-60
2024/03/14 20:52:40;;;;;;;6.43;4.00;;;;;;;11.05;61.66;99403.63;10431581;28;20182;-60
2024/03/14 20:58:02;;;;;;;5.75;3.78;;;;;;;11.03;62.22;99395.81;10431004;28;20048;-60
2024/03/14 21:03:06;;;;;;;8.85;4.82;;;;;;;11.05;61.70;99399.19;10428441;28;20420;-60
2024/03/14 21:08:09;;;;;;;6.20;3.88;;;;;;;11.02;61.77;99402.03;10424084;28;20138;-60
2024/03/14 21:13:13;;;;;;;5.47;3.50;;;;;;;10.88;61.68;99401.28;10432065;28;20072;-60
2024/03/14 21:18:16;;;;;;;5.68;3.42;;;;;;;10.79;62.08;99396.69;10436346;28;20528;-60
2024/03/14 21:23:19;;;;;;;8.32;4.35;;;;;;;10.68;62.22;99402.69;10436193;28;20516;-61
2024/03/14 21:28:22;;;;;;;7.07;3.42;;;;;;;10.55;62.37;99399.22;10428295;28;20074;-61
2024/03/14 21:33:24;;;;;;;5.55;3.05;;;;;;;10.56;62.34;99398.28;10429716;28;20107;-61
2024/03/14 21:38:26;;;;;;;5.60;3.35;;;;;;;10.56;62.48;99397.44;10431226;28;20049;-60
2024/03/14 21:43:29;;;;;;;5.10;3.40;;;;;;;10.37;62.58;99405.69;10428469;28;21093;-60
2024/03/14 21:48:34;;;;;;;6.43;3.75;;;;;;;10.21;62.83;99395.44;10432880;28;20053;-60
2024/03/14 21:53:38;;;;;;;4.90;3.17;;;;;;;10.17;62.74;99400.97;10428785;28;20138;-61
2024/03/14 21:58:42;;;;;;;8.30;4.18;;;;;;;10.14;63.02;99399.38;10433771;28;20420;-61
2024/03/14 22:03:56;;;;;;;6.32;3.30;;;;;;;10.19;62.91;99396.47;10433467;28;21015;-61
2024/03/14 22:09:00;;;;;;;5.93;3.03;;;;;;;10.09;63.01;99387.56;10431346;28;20045;-60
2024/03/14 22:14:06;;;;;;;5.65;3.28;;;;;;;10.04;63.23;99379.19;10431358;28;20440;-60
2024/03/14 22:19:12;;;;;;;5.68;3.47;;;;;;;10.01;63.17;99388.03;10429302;28;20044;-60
2024/03/14 22:24:15;;;;;;;6.18;3.60;;;;;;;9.98;63.40;99379.59;10432726;28;20508;-60
2024/03/14 22:29:17;;;;;;;6.90;3.78;;;;;;;9.85;63.19;99383.97;10432642;28;20045;-60
2024/03/14 22:34:20;;;;;;;7.05;3.47;;;;;;;9.75;63.45;99377.66;10433002;28;20048;-60
2024/03/14 22:39:23;;;;;;;6.43;3.60;;;;;;;9.70;63.42;99377.09;10431996;28;20133;-60
2024/03/14 22:44:26;;;;;;;6.13;3.65;;;;;;;9.64;63.61;99379.16;10432592;28;20041;-60
2024/03/14 22:49:29;;;;;;;9.15;3.63;;;;;;;9.58;63.62;99370.88;10432369;28;20122;-60
2024/03/14 22:54:32;;;;;;;4.82;3.22;;;;;;;9.51;63.75;99367.81;10432326;28;20041;-61
2024/03/14 22:59:36;;;;;;;6.35;3.10;;;;;;;9.49;63.76;99363.63;10431682;28;20469;-60
2024/03/14 23:04:41;;;;;;;6.18;3.70;;;;;;;9.46;63.89;99364.66;10430797;28;20110;-60
2024/03/14 23:09:43;;;;;;;5.28;3.28;;;;;;;9.42;63.84;99371.00;10427458;28;20052;-60
2024/03/14 23:14:46;;;;;;;4.85;3.08;;;;;;;9.30;63.76;99366.56;10429684;28;20472;-60
2024/03/14 23:19:51;;;;;;;6.00;3.50;;;;;;;9.17;64.10;99375.28;10425337;28;20099;-60
2024/03/14 23:24:53;;;;;;;4.72;3.13;;;;;;;9.21;63.95;99376.75;10425577;28;20052;-60
2024/03/14 23:29:55;;;;;;;7.03;3.53;;;;;;;9.27;63.79;99373.75;10428519;28;20060;-61
2024/03/14 23:34:58;;;;;;;6.95;3.83;;;;;;;9.26;63.79;99366.88;10425227;28;20052;-60